Time;durP1;ratioP1;P1;durP2;ratioP2;P2;SDS_P1;SDS_P2;PMS_P1;PMS_P2;Temp;Humidity;BMP_temperature;BMP_pressure;BME280_temperature;BME280_humidity;BME280_pressure;Samples;Min_cycle;Max_cycle;Signal;HPM_P1;HPM_P2
2022/08/07 00:01:36;;;;;;;1.20;1.10;;;17.10;76.90;;;;;;4987710;28;20215;-70
2022/08/07 00:04:03;;;;;;;1.10;0.88;;;17.10;77.20;;;;;;4986439;28;20249;-71
2022/08/07 00:06:31;;;;;;;1.50;1.00;;;17.10;77.40;;;;;;4986315;28;20237;-71
2022/08/07 00:08:58;;;;;;;1.52;1.00;;;17.00;77.60;;;;;;5004173;28;20167;-71
2022/08/07 00:11:24;;;;;;;1.70;1.17;;;17.00;77.90;;;;;;4989325;28;20177;-73
2022/08/07 00:13:50;;;;;;;1.40;1.10;;;17.00;78.10;;;;;;4989769;28;20231;-72
2022/08/07 00:16:15;;;;;;;2.65;1.10;;;17.00;78.40;;;;;;4990643;28;20190;-72
2022/08/07 00:18:41;;;;;;;1.40;0.90;;;17.00;78.60;;;;;;4983693;28;20190;-72
2022/08/07 00:21:09;;;;;;;2.67;1.08;;;16.90;78.60;;;;;;4989523;28;20274;-71
2022/08/07 00:23:38;;;;;;;1.15;1.00;;;16.80;78.60;;;;;;4996225;28;20194;-71
2022/08/07 00:26:08;;;;;;;1.50;1.00;;;16.80;78.90;;;;;;4994696;28;20175;-71
2022/08/07 00:28:36;;;;;;;1.33;1.00;;;16.80;79.70;;;;;;4991573;28;20191;-72
2022/08/07 00:31:06;;;;;;;1.40;1.10;;;16.80;79.40;;;;;;4993740;28;20175;-72
2022/08/07 00:33:34;;;;;;;1.40;1.17;;;16.70;79.40;;;;;;4991739;28;20238;-72
2022/08/07 00:36:03;;;;;;;1.70;1.10;;;16.70;79.30;;;;;;4985488;28;20175;-71
2022/08/07 00:38:32;;;;;;;1.25;0.93;;;16.70;79.60;;;;;;4986364;28;20176;-72
2022/08/07 00:40:59;;;;;;;1.25;0.90;;;16.60;79.40;;;;;;4992122;28;20179;-70
2022/08/07 00:43:28;;;;;;;1.58;0.90;;;16.60;79.40;;;;;;4992513;28;20188;-72
2022/08/07 00:45:53;;;;;;;1.10;0.82;;;16.60;79.70;;;;;;4985076;28;20210;-73
2022/08/07 00:48:21;;;;;;;1.00;0.85;;;16.50;79.60;;;;;;4988615;28;20203;-71
2022/08/07 00:50:46;;;;;;;0.98;0.88;;;16.50;79.70;;;;;;4988857;28;20183;-73
2022/08/07 00:53:14;;;;;;;1.73;1.00;;;16.40;79.70;;;;;;4985731;28;20195;-72
2022/08/07 00:55:40;;;;;;;1.52;1.10;;;16.40;79.90;;;;;;4987452;28;20225;-72
2022/08/07 00:58:06;;;;;;;1.13;0.90;;;16.30;80.00;;;;;;4988986;28;20184;-73
2022/08/07 01:00:31;;;;;;;1.17;0.82;;;16.30;80.30;;;;;;4983831;28;20200;-73
2022/08/07 01:03:00;;;;;;;1.02;0.80;;;16.20;80.40;;;;;;4990276;28;20275;-73
2022/08/07 01:05:27;;;;;;;0.80;0.80;;;16.20;80.60;;;;;;4987863;28;20195;-71
2022/08/07 01:07:55;;;;;;;2.50;1.00;;;16.10;80.70;;;;;;4987731;28;20208;-72
2022/08/07 01:10:21;;;;;;;1.48;1.10;;;16.00;81.60;;;;;;4989063;28;20243;-72
2022/08/07 01:12:49;;;;;;;1.13;0.90;;;16.00;81.20;;;;;;4988978;28;20188;-74
2022/08/07 01:15:15;;;;;;;1.42;0.73;;;16.00;81.60;;;;;;4989863;28;20183;-71
2022/08/07 01:17:41;;;;;;;1.00;0.90;;;15.90;81.70;;;;;;4986994;28;20773;-72
2022/08/07 01:20:11;;;;;;;1.13;0.85;;;15.90;81.90;;;;;;4979761;28;20234;-72
2022/08/07 01:22:40;;;;;;;1.02;0.70;;;15.90;82.40;;;;;;4987385;28;20309;-72
2022/08/07 01:25:12;;;;;;;1.00;0.80;;;15.90;82.40;;;;;;4983489;28;20212;-71
2022/08/07 01:27:38;;;;;;;1.20;0.90;;;15.90;82.80;;;;;;4981599;28;20262;-72
2022/08/07 01:30:08;;;;;;;1.25;1.00;;;15.80;82.80;;;;;;4983785;28;20179;-73
2022/08/07 01:32:33;;;;;;;1.00;0.88;;;15.80;83.00;;;;;;4983918;28;20199;-70
2022/08/07 01:35:00;;;;;;;1.05;0.90;;;15.80;83.20;;;;;;4982554;28;20206;-73
2022/08/07 01:37:26;;;;;;;1.70;0.82;;;15.80;83.50;;;;;;4981631;28;20194;-72
2022/08/07 01:39:52;;;;;;;1.90;1.02;;;15.80;83.50;;;;;;4987496;28;20207;-72
2022/08/07 01:42:18;;;;;;;1.27;0.90;;;15.80;83.70;;;;;;4988325;28;20187;-72
2022/08/07 01:44:47;;;;;;;1.80;1.13;;;15.70;83.80;;;;;;4981716;28;20506;-72
2022/08/07 01:47:16;;;;;;;1.02;0.77;;;15.70;84.10;;;;;;4985708;28;20190;-72
2022/08/07 01:49:42;;;;;;;1.23;0.90;;;15.70;84.20;;;;;;5003898;28;20186;-72
2022/08/07 01:52:09;;;;;;;1.08;0.93;;;15.70;84.50;;;;;;4987468;28;20203;-72
2022/08/07 01:54:38;;;;;;;1.80;1.00;;;15.60;84.70;;;;;;4981016;28;20189;-72
2022/08/07 01:57:14;;;;;;;1.33;0.95;;;15.60;85.00;;;;;;4998762;28;20196;-72
2022/08/07 02:00:01;;;;;;;1.23;0.63;;;15.60;85.50;;;;;;4984186;28;20183;-72
2022/08/07 02:02:35;;;;;;;0.88;0.70;;;15.60;86.10;;;;;;4981668;28;20207;-72
2022/08/07 02:05:09;;;;;;;1.30;0.80;;;15.60;85.80;;;;;;4982003;28;20293;-72
2022/08/07 02:07:39;;;;;;;1.15;0.70;;;15.60;86.00;;;;;;4984052;28;20218;-72
2022/08/07 02:10:07;;;;;;;1.52;0.90;;;15.50;86.00;;;;;;4983321;28;20235;-72
2022/08/07 02:12:37;;;;;;;0.95;0.80;;;15.50;86.20;;;;;;4983135;28;20220;-72
2022/08/07 02:15:03;;;;;;;1.70;0.80;;;15.50;86.50;;;;;;4987995;28;20185;-72
2022/08/07 02:17:30;;;;;;;1.63;0.90;;;15.40;86.40;;;;;;4979172;28;20264;-72
2022/08/07 02:19:58;;;;;;;0.93;0.70;;;15.40;86.60;;;;;;4983677;28;20243;-72
2022/08/07 02:22:25;;;;;;;1.85;0.88;;;15.40;87.10;;;;;;4982048;28;20226;-72
2022/08/07 02:24:52;;;;;;;1.08;0.93;;;15.30;87.30;;;;;;4983397;28;20207;-71
2022/08/07 02:27:21;;;;;;;1.27;0.90;;;15.20;87.30;;;;;;4983632;28;20193;-73
2022/08/07 02:29:49;;;;;;;1.48;1.00;;;15.30;87.90;;;;;;4983210;28;20262;-72
2022/08/07 02:32:16;;;;;;;1.17;0.85;;;15.30;88.10;;;;;;4985528;28;20258;-74
2022/08/07 02:34:47;;;;;;;1.20;0.80;;;15.20;88.30;;;;;;4984339;28;20199;-72
2022/08/07 02:37:17;;;;;;;1.20;0.88;;;15.20;89.10;;;;;;4982698;28;20185;-72
2022/08/07 02:39:45;;;;;;;1.25;0.80;;;15.20;89.10;;;;;;4978481;28;20187;-71
2022/08/07 02:42:13;;;;;;;1.80;0.90;;;15.20;89.40;;;;;;4981894;28;20184;-73
2022/08/07 02:44:42;;;;;;;1.67;1.00;;;15.10;89.50;;;;;;4985435;28;20522;-71
2022/08/07 02:47:09;;;;;;;1.45;1.05;;;15.10;89.80;;;;;;4982314;28;20210;-72
2022/08/07 02:49:35;;;;;;;1.50;0.90;;;15.00;89.70;;;;;;4983856;28;20428;-72
2022/08/07 02:52:03;;;;;;;1.20;1.00;;;15.00;89.80;;;;;;4981934;28;20198;-72
2022/08/07 02:54:31;;;;;;;2.90;0.98;;;14.90;90.00;;;;;;4981192;28;20176;-71
2022/08/07 02:57:03;;;;;;;1.10;0.80;;;14.90;90.10;;;;;;4982721;28;20188;-72
2022/08/07 02:59:31;;;;;;;1.33;1.00;;;14.90;90.20;;;;;;4983352;28;20208;-71
2022/08/07 03:01:58;;;;;;;1.92;1.05;;;14.90;90.30;;;;;;4982956;28;20183;-70
2022/08/07 03:04:25;;;;;;;2.35;1.30;;;14.90;90.40;;;;;;4980344;28;20238;-72
2022/08/07 03:06:51;;;;;;;1.00;0.80;;;14.90;90.50;;;;;;4980741;28;20187;-72
2022/08/07 03:09:22;;;;;;;1.30;0.93;;;14.80;90.50;;;;;;4985740;28;20200;-72
2022/08/07 03:11:49;;;;;;;1.10;0.90;;;14.80;90.70;;;;;;4984081;28;20273;-71
2022/08/07 03:14:16;;;;;;;5.05;0.90;;;14.80;91.00;;;;;;4981939;28;20192;-71
2022/08/07 03:16:42;;;;;;;1.40;0.80;;;14.80;90.90;;;;;;4984411;28;20187;-72
2022/08/07 03:19:10;;;;;;;2.30;1.00;;;14.80;90.90;;;;;;4986773;28;20294;-72
2022/08/07 03:21:36;;;;;;;2.15;0.90;;;14.70;91.00;;;;;;4981270;28;20251;-72
2022/08/07 03:24:02;;;;;;;2.42;1.02;;;14.70;91.00;;;;;;4979477;28;20267;-71
2022/08/07 03:26:31;;;;;;;1.02;0.88;;;14.70;91.00;;;;;;4983289;28;20175;-72
2022/08/07 03:29:00;;;;;;;2.67;1.00;;;14.60;91.20;;;;;;4987828;28;20192;-70
2022/08/07 03:31:26;;;;;;;1.40;0.70;;;14.60;91.30;;;;;;4982150;28;20547;-72
2022/08/07 03:33:57;;;;;;;1.67;0.90;;;14.60;91.50;;;;;;4984802;28;20206;-72
2022/08/07 03:36:25;;;;;;;2.30;0.90;;;14.60;91.70;;;;;;4996198;28;20184;-72
2022/08/07 03:38:58;;;;;;;1.35;0.80;;;14.50;91.60;;;;;;4981086;28;20176;-72
2022/08/07 03:41:25;;;;;;;1.48;0.85;;;14.50;91.70;;;;;;4984306;28;20194;-71
2022/08/07 03:43:53;;;;;;;1.35;0.80;;;14.40;91.70;;;;;;4982671;28;20200;-72
2022/08/07 03:46:21;;;;;;;1.30;0.80;;;14.40;91.80;;;;;;4985292;28;20190;-68
2022/08/07 03:48:47;;;;;;;1.13;0.80;;;14.30;92.00;;;;;;4983938;28;20180;-71
2022/08/07 03:51:14;;;;;;;0.93;0.82;;;14.40;92.20;;;;;;4979248;28;20187;-71
2022/08/07 03:53:40;;;;;;;1.50;0.85;;;14.40;92.30;;;;;;4980263;28;20219;-71
2022/08/07 03:56:09;;;;;;;1.83;0.85;;;14.40;92.40;;;;;;4982149;28;20200;-72
2022/08/07 03:58:37;;;;;;;1.40;1.10;;;14.30;92.40;;;;;;4982865;28;20188;-71
2022/08/07 04:01:05;;;;;;;0.95;0.88;;;14.30;92.50;;;;;;4985772;28;20179;-71
2022/08/07 04:03:31;;;;;;;1.38;0.90;;;14.30;92.60;;;;;;4984968;28;20234;-71
2022/08/07 04:05:57;;;;;;;1.55;0.90;;;14.30;92.80;;;;;;4977869;28;20207;-71
2022/08/07 04:08:25;;;;;;;1.15;0.82;;;14.20;92.80;;;;;;4982045;28;20211;-72
2022/08/07 04:10:51;;;;;;;1.83;0.88;;;14.20;93.10;;;;;;4980797;28;20175;-71
2022/08/07 04:13:18;;;;;;;3.00;1.00;;;14.20;93.30;;;;;;4998322;28;20176;-72
2022/08/07 04:15:46;;;;;;;2.33;0.88;;;14.10;93.40;;;;;;4987468;28;20218;-72
2022/08/07 04:18:15;;;;;;;2.10;0.80;;;14.10;93.90;;;;;;4982284;28;20195;-72
2022/08/07 04:20:41;;;;;;;1.83;0.90;;;14.00;94.00;;;;;;4983539;28;20264;-72
2022/08/07 04:23:11;;;;;;;2.55;1.13;;;14.00;94.00;;;;;;4987077;28;20199;-71
2022/08/07 04:25:41;;;;;;;1.20;0.90;;;14.00;94.30;;;;;;4983575;28;20234;-71
2022/08/07 04:28:11;;;;;;;0.98;0.88;;;14.00;94.40;;;;;;4977281;28;20183;-72
2022/08/07 04:30:37;;;;;;;1.15;0.82;;;14.00;94.60;;;;;;4985072;28;20175;-71
2022/08/07 04:33:09;;;;;;;3.35;1.05;;;14.00;94.80;;;;;;4979311;28;20218;-71
2022/08/07 04:35:37;;;;;;;1.20;0.90;;;14.00;95.50;;;;;;4985413;28;20819;-72
2022/08/07 04:38:09;;;;;;;1.20;0.90;;;14.00;95.30;;;;;;4977554;28;20187;-71
2022/08/07 04:40:39;;;;;;;2.05;1.00;;;14.00;95.80;;;;;;4976907;28;20195;-72
2022/08/07 04:43:04;;;;;;;2.38;1.17;;;14.00;95.50;;;;;;4976558;28;20171;-70
2022/08/07 04:45:53;;;;;;;1.13;0.82;;;14.00;95.30;;;;;;4981092;28;20199;-71
2022/08/07 04:48:35;;;;;;;1.10;0.80;;;14.00;95.80;;;;;;4972942;28;20219;-72
2022/08/07 04:51:36;;;;;;;1.92;1.00;;;13.90;95.70;;;;;;4976890;28;20176;-71
2022/08/07 04:54:13;;;;;;;0.82;0.75;;;13.90;95.90;;;;;;4990803;28;20216;-71
2022/08/07 04:56:49;;;;;;;2.53;0.93;;;13.90;95.60;;;;;;4988193;28;20183;-71
2022/08/07 04:59:29;;;;;;;1.25;0.95;;;13.90;95.90;;;;;;4987340;28;20180;-71
2022/08/07 05:02:03;;;;;;;1.15;0.93;;;13.90;96.20;;;;;;4979644;28;20257;-71
2022/08/07 05:04:53;;;;;;;1.33;1.08;;;13.90;96.20;;;;;;4984340;28;20210;-71
2022/08/07 05:07:31;;;;;;;1.48;1.00;;;13.90;96.50;;;;;;4982275;28;20216;-72
2022/08/07 05:10:06;;;;;;;1.58;1.10;;;13.80;96.30;;;;;;4987392;28;20176;-72
2022/08/07 05:12:57;;;;;;;1.38;1.00;;;13.80;96.30;;;;;;4989027;28;20270;-71
2022/08/07 05:15:37;;;;;;;1.40;1.02;;;13.80;96.90;;;;;;4988898;28;20179;-71
2022/08/07 05:18:08;;;;;;;3.03;1.05;;;13.90;97.00;;;;;;4989382;28;20182;-72
2022/08/07 05:20:42;;;;;;;1.83;1.10;;;13.90;96.80;;;;;;4986648;28;20265;-71
2022/08/07 05:23:20;;;;;;;1.15;1.00;;;13.90;96.90;;;;;;4991337;28;20194;-72
2022/08/07 05:25:46;;;;;;;2.40;1.10;;;13.90;97.30;;;;;;4987598;28;20208;-70
2022/08/07 05:28:15;;;;;;;1.23;0.90;;;14.00;97.10;;;;;;4984280;28;20230;-72
2022/08/07 05:30:47;;;;;;;1.48;1.00;;;14.00;97.50;;;;;;4984871;28;21160;-71
2022/08/07 05:33:19;;;;;;;1.10;0.90;;;14.00;97.30;;;;;;4990139;28;20200;-68
2022/08/07 05:35:45;;;;;;;1.73;1.25;;;14.10;97.50;;;;;;4999581;28;20184;-69
2022/08/07 05:38:12;;;;;;;2.67;1.50;;;14.10;97.60;;;;;;4984863;28;20206;-71
2022/08/07 05:40:40;;;;;;;2.42;1.20;;;14.20;97.70;;;;;;4981785;28;20192;-72
2022/08/07 05:43:09;;;;;;;3.38;1.20;;;14.20;98.00;;;;;;4985292;28;20223;-72
2022/08/07 05:45:37;;;;;;;1.45;1.00;;;14.20;98.10;;;;;;4982252;28;20203;-72
2022/08/07 05:48:03;;;;;;;2.25;1.30;;;14.20;98.00;;;;;;4984262;28;20904;-71
2022/08/07 05:50:33;;;;;;;1.13;0.98;;;14.30;98.10;;;;;;4982828;28;20214;-72
2022/08/07 05:53:01;;;;;;;1.95;1.35;;;14.40;98.30;;;;;;4982113;28;20222;-73
2022/08/07 05:55:28;;;;;;;1.52;1.20;;;14.40;98.40;;;;;;4989512;28;20171;-72
2022/08/07 05:57:58;;;;;;;1.75;1.23;;;14.40;98.40;;;;;;4985452;28;20180;-73
2022/08/07 06:00:26;;;;;;;1.60;1.40;;;14.50;98.70;;;;;;4980393;28;20196;-73
2022/08/07 06:02:56;;;;;;;1.73;1.23;;;14.50;98.70;;;;;;4994139;28;20206;-74
2022/08/07 06:05:27;;;;;;;1.60;1.35;;;14.60;98.90;;;;;;4984073;28;20252;-74
2022/08/07 06:07:53;;;;;;;1.70;1.20;;;14.60;98.90;;;;;;4984805;28;20195;-74
2022/08/07 06:10:20;;;;;;;1.88;1.20;;;14.60;99.00;;;;;;4981610;28;20183;-74
2022/08/07 06:12:48;;;;;;;1.48;1.15;;;14.70;99.20;;;;;;4985545;28;20295;-74
2022/08/07 06:15:15;;;;;;;1.88;1.15;;;14.80;99.30;;;;;;4989433;28;20203;-74
2022/08/07 06:17:42;;;;;;;2.40;1.40;;;14.90;99.50;;;;;;4986136;28;20255;-75
2022/08/07 06:20:09;;;;;;;3.20;1.20;;;14.90;99.40;;;;;;4985420;28;20243;-75
2022/08/07 06:22:36;;;;;;;1.77;1.27;;;15.00;99.50;;;;;;4986903;28;20183;-71
2022/08/07 06:25:03;;;;;;;2.03;1.15;;;15.10;99.60;;;;;;4986218;28;20275;-74
2022/08/07 06:27:31;;;;;;;2.15;1.30;;;15.10;99.70;;;;;;4986564;28;20192;-74
2022/08/07 06:29:57;;;;;;;2.22;1.52;;;15.20;99.80;;;;;;4986666;28;20184;-74
2022/08/07 06:32:23;;;;;;;2.28;1.50;;;15.30;99.80;;;;;;4988049;28;20739;-73
2022/08/07 06:34:51;;;;;;;2.10;1.35;;;15.40;99.90;;;;;;4996424;28;20198;-74
2022/08/07 06:37:16;;;;;;;2.30;1.25;;;15.40;99.90;;;;;;4986859;28;20187;-72
2022/08/07 06:39:44;;;;;;;1.85;1.38;;;15.50;99.90;;;;;;4987139;28;20226;-74
2022/08/07 06:42:20;;;;;;;1.70;1.25;;;15.60;99.90;;;;;;4983907;28;20176;-73
2022/08/07 06:44:51;;;;;;;2.53;1.40;;;15.60;99.90;;;;;;4987906;28;20207;-75
2022/08/07 06:47:19;;;;;;;1.13;1.00;;;15.70;99.90;;;;;;4985190;28;20255;-74
2022/08/07 06:49:50;;;;;;;1.60;1.30;;;15.70;99.90;;;;;;4986297;28;20179;-72
2022/08/07 06:52:17;;;;;;;1.52;1.00;;;15.80;99.90;;;;;;4985283;28;20211;-73
2022/08/07 06:54:48;;;;;;;2.28;1.08;;;15.80;99.90;;;;;;4986247;28;20271;-73
2022/08/07 06:57:19;;;;;;;5.03;1.40;;;15.90;99.90;;;;;;4975672;28;20231;-76
2022/08/07 06:59:45;;;;;;;1.63;1.13;;;16.00;99.90;;;;;;4981835;28;20442;-74
2022/08/07 07:02:20;;;;;;;2.03;1.25;;;16.00;99.90;;;;;;4985121;28;20193;-74
2022/08/07 07:04:46;;;;;;;3.83;1.20;;;16.20;99.90;;;;;;4986708;28;20203;-77
2022/08/07 07:07:15;;;;;;;2.30;1.05;;;16.20;99.90;;;;;;4985429;28;20188;-75
2022/08/07 07:09:46;;;;;;;2.33;1.20;;;16.30;99.90;;;;;;4986331;28;20203;-73
2022/08/07 07:12:36;;;;;;;1.02;0.93;;;16.40;99.90;;;;;;4981135;28;20180;-73
2022/08/07 07:15:22;;;;;;;1.67;1.02;;;16.50;99.90;;;;;;4985562;28;20241;-73
2022/08/07 07:18:02;;;;;;;1.55;1.10;;;16.60;99.90;;;;;;4984639;28;20195;-75
2022/08/07 07:20:56;;;;;;;1.33;1.10;;;16.70;99.90;;;;;;4985330;28;20180;-74
2022/08/07 07:23:25;;;;;;;1.52;1.20;;;16.80;99.90;;;;;;4986186;28;20231;-72
2022/08/07 07:25:55;;;;;;;7.22;4.97;;;17.00;99.90;;;;;;5004703;28;20215;-74
2022/08/07 07:28:31;;;;;;;3.88;3.30;;;17.00;99.90;;;;;;4987414;28;20203;-73
2022/08/07 07:31:23;;;;;;;4.38;3.45;;;17.10;99.90;;;;;;4992506;28;20183;-73
2022/08/07 07:33:54;;;;;;;3.45;2.28;;;17.20;99.90;;;;;;4987206;28;20199;-74
2022/08/07 07:36:23;;;;;;;2.20;1.88;;;17.30;99.90;;;;;;4989388;28;20662;-72
2022/08/07 07:38:49;;;;;;;3.13;2.40;;;17.40;99.90;;;;;;4991456;28;20218;-71
2022/08/07 07:41:21;;;;;;;3.38;2.45;;;17.50;99.80;;;;;;4995768;28;20172;-70
2022/08/07 07:43:54;;;;;;;2.13;1.92;;;17.60;99.60;;;;;;4997355;28;20253;-72
2022/08/07 07:46:22;;;;;;;3.33;1.80;;;17.70;99.60;;;;;;5001537;28;20183;-72
2022/08/07 07:48:55;;;;;;;1.40;1.10;;;17.70;99.50;;;;;;4993255;28;20291;-73
2022/08/07 07:51:21;;;;;;;4.90;1.48;;;17.80;99.40;;;;;;5005907;28;20179;-74
2022/08/07 07:53:51;;;;;;;1.10;1.00;;;17.90;99.40;;;;;;4994500;28;20188;-72
2022/08/07 07:56:19;;;;;;;0.90;0.77;;;18.00;99.30;;;;;;4968738;28;20184;-71
2022/08/07 07:58:45;;;;;;;1.67;0.90;;;18.00;99.20;;;;;;4989877;28;20262;-73
2022/08/07 08:01:15;;;;;;;3.05;1.30;;;18.10;99.20;;;;;;4996033;28;20182;-73
2022/08/07 08:03:42;;;;;;;1.33;0.80;;;18.20;99.10;;;;;;4992175;28;20203;-76
2022/08/07 08:06:09;;;;;;;0.90;0.70;;;18.30;99.10;;;;;;4994693;28;20286;-81
2022/08/07 08:08:40;;;;;;;1.15;0.93;;;18.30;99.00;;;;;;4989086;28;20207;-77
2022/08/07 08:11:08;;;;;;;2.28;1.30;;;18.40;98.70;;;;;;4992709;28;20175;-75
2022/08/07 08:13:43;;;;;;;2.90;2.13;;;18.50;98.70;;;;;;4993011;28;20187;-74
2022/08/07 08:16:15;;;;;;;3.65;2.80;;;18.60;98.40;;;;;;4991100;28;20257;-74
2022/08/07 08:18:43;;;;;;;2.55;1.92;;;18.70;98.40;;;;;;4990387;28;20610;-73
2022/08/07 08:27:03;;;;;;;2.08;1.45;;;18.80;98.40;;;;;;4988646;28;20306;-72
2022/08/07 08:27:04;;;;;;;0.90;0.80;;;18.90;97.60;;;;;;4991388;28;20254;-77
2022/08/07 08:29:39;;;;;;;3.22;0.93;;;19.00;97.80;;;;;;4991289;28;20198;-74
2022/08/07 08:32:08;;;;;;;0.95;0.80;;;19.10;97.30;;;;;;4989888;28;20175;-70
2022/08/07 08:34:36;;;;;;;1.33;0.80;;;19.20;97.60;;;;;;4991047;28;20205;-75
2022/08/07 08:37:07;;;;;;;0.98;0.70;;;19.20;97.40;;;;;;4995872;28;20202;-73
2022/08/07 08:39:33;;;;;;;0.50;0.43;;;19.30;97.20;;;;;;4992716;28;20192;-73
2022/08/07 08:42:06;;;;;;;1.10;0.70;;;19.40;97.40;;;;;;4994381;28;20195;-74
2022/08/07 08:44:34;;;;;;;1.73;0.80;;;19.50;96.80;;;;;;4989871;28;20304;-72
2022/08/07 08:47:23;;;;;;;1.25;0.50;;;19.60;96.70;;;;;;4984898;28;20175;-80
2022/08/07 08:49:58;;;;;;;0.73;0.70;;;19.60;97.00;;;;;;4987944;28;20197;-75
2022/08/07 08:52:33;;;;;;;0.60;0.60;;;19.80;96.40;;;;;;4996162;28;20243;-78
2022/08/07 08:55:05;;;;;;;1.05;0.60;;;19.90;96.80;;;;;;4989894;28;20229;-80
2022/08/07 08:57:57;;;;;;;4.10;0.70;;;19.90;96.40;;;;;;4988369;28;20180;-78
2022/08/07 09:00:29;;;;;;;0.73;0.52;;;20.00;96.10;;;;;;4984561;28;20183;-81
2022/08/07 09:03:24;;;;;;;0.82;0.50;;;20.10;96.30;;;;;;4986688;28;20175;-75
2022/08/07 09:06:08;;;;;;;0.65;0.57;;;20.30;95.10;;;;;;4993572;28;20188;-69
2022/08/07 09:08:54;;;;;;;0.60;0.50;;;20.30;95.40;;;;;;4988434;28;20247;-75
2022/08/07 09:11:38;;;;;;;0.90;0.70;;;20.40;95.10;;;;;;4984767;28;20203;-72
2022/08/07 09:14:21;;;;;;;1.60;0.90;;;20.50;95.20;;;;;;4980700;28;20179;-77
2022/08/07 09:16:58;;;;;;;0.60;0.60;;;20.70;94.80;;;;;;4989068;28;20209;-78
2022/08/07 09:19:48;;;;;;;0.68;0.57;;;20.70;94.80;;;;;;4981252;28;20226;-77
2022/08/07 09:22:39;;;;;;;0.90;0.50;;;20.90;94.60;;;;;;4981022;28;20180;-76
2022/08/07 09:25:21;;;;;;;0.77;0.43;;;21.00;94.00;;;;;;4984439;28;20219;-77
2022/08/07 09:27:58;;;;;;;0.68;0.50;;;21.10;93.90;;;;;;4988005;28;20176;-76
2022/08/07 09:30:28;;;;;;;0.32;0.30;;;21.10;94.10;;;;;;4997207;28;20172;-78
2022/08/07 09:33:18;;;;;;;1.00;0.40;;;21.20;94.10;;;;;;4985387;28;20239;-77
2022/08/07 09:36:08;;;;;;;2.13;0.57;;;21.30;92.90;;;;;;4987474;28;21189;-77
2022/08/07 09:38:44;;;;;;;0.80;0.55;;;21.40;93.10;;;;;;4981162;28;20207;-77
2022/08/07 09:41:47;;;;;;;0.57;0.45;;;21.50;93.40;;;;;;4980138;28;20268;-78
2022/08/07 09:44:25;;;;;;;1.85;0.65;;;21.70;92.70;;;;;;4976282;28;20211;-77
2022/08/07 09:47:20;;;;;;;2.40;0.50;;;21.80;91.80;;;;;;4999751;28;20188;-77
2022/08/07 09:49:51;;;;;;;0.98;0.60;;;21.90;92.60;;;;;;4991392;28;20180;-74
2022/08/07 09:52:17;;;;;;;0.57;0.40;;;22.00;93.00;;;;;;4984777;28;20189;-78
2022/08/07 09:54:58;;;;;;;0.60;0.40;;;22.10;93.40;;;;;;4976228;28;20188;-78
2022/08/07 09:57:38;;;;;;;1.08;0.60;;;22.30;92.20;;;;;;4990703;28;20191;-77
2022/08/07 10:00:10;;;;;;;0.90;0.40;;;22.40;92.80;;;;;;4985892;28;20219;-76
2022/08/07 10:02:57;;;;;;;0.50;0.40;;;22.50;91.50;;;;;;4977755;28;20211;-74
2022/08/07 10:05:54;;;;;;;0.40;0.38;;;22.60;90.90;;;;;;5000930;28;20235;-77
2022/08/07 10:08:54;;;;;;;2.75;0.45;;;22.70;90.80;;;;;;4991222;28;20200;-75
2022/08/07 10:12:09;;;;;;;0.47;0.47;;;22.80;90.60;;;;;;4983817;28;20184;-75
2022/08/07 10:14:57;;;;;;;0.57;0.40;;;23.00;90.60;;;;;;4873415;29;20211;-77
2022/08/07 10:18:07;;;;;;;0.77;0.40;;;23.10;90.30;;;;;;4986463;28;20183;-78
2022/08/07 10:21:05;;;;;;;0.60;0.40;;;23.20;87.50;;;;;;4953765;28;20203;-74
2022/08/07 10:23:51;;;;;;;1.08;0.68;;;23.30;88.80;;;;;;4967163;28;20203;-77
2022/08/07 10:26:35;;;;;;;1.70;0.60;;;23.50;88.20;;;;;;4971345;28;20184;-74
2022/08/07 10:29:22;;;;;;;0.63;0.40;;;23.90;87.40;;;;;;4985515;28;20198;-79
2022/08/07 10:32:26;;;;;;;0.95;0.50;;;24.30;88.10;;;;;;4993952;28;20176;-78
2022/08/07 10:35:29;;;;;;;0.55;0.40;;;24.90;85.70;;;;;;4983899;28;20168;-75
2022/08/07 10:38:10;;;;;;;0.60;0.50;;;25.50;80.40;;;;;;4966958;28;20198;-78
2022/08/07 10:40:43;;;;;;;1.15;0.70;;;26.10;83.10;;;;;;4978795;28;20232;-78
2022/08/07 10:43:17;;;;;;;1.08;0.68;;;26.50;83.30;;;;;;4974919;28;20180;-74
2022/08/07 10:45:57;;;;;;;1.60;0.47;;;26.90;81.10;;;;;;4981242;28;20204;-76
2022/08/07 10:48:37;;;;;;;0.93;0.50;;;27.20;79.30;;;;;;4987731;28;20229;-75
2022/08/07 10:51:10;;;;;;;1.05;0.57;;;27.40;77.60;;;;;;4992056;28;20176;-79
2022/08/07 10:53:50;;;;;;;0.60;0.40;;;27.70;78.80;;;;;;4973595;28;20192;-72
2022/08/07 10:56:26;;;;;;;2.00;0.38;;;27.90;75.80;;;;;;4974585;28;20179;-79
2022/08/07 10:59:00;;;;;;;0.20;0.20;;;28.00;75.20;;;;;;4979759;28;20175;-79
2022/08/07 11:01:26;;;;;;;0.22;0.20;;;28.20;72.30;;;;;;4988187;28;20183;-76
2022/08/07 11:04:21;;;;;;;2.05;0.98;;;28.30;76.20;;;;;;4995079;28;20183;-73
2022/08/07 11:06:58;;;;;;;0.52;0.40;;;28.40;71.90;;;;;;4988210;28;20208;-76
2022/08/07 11:09:30;;;;;;;0.98;0.50;;;28.30;63.10;;;;;;4989625;28;20285;-79
2022/08/07 11:12:03;;;;;;;0.73;0.43;;;28.30;70.40;;;;;;4981861;28;20180;-77
2022/08/07 11:14:40;;;;;;;0.35;0.32;;;28.20;69.50;;;;;;4986870;28;20200;-78
2022/08/07 11:17:16;;;;;;;0.75;0.40;;;28.30;69.40;;;;;;4984779;28;20178;-74
2022/08/07 11:19:48;;;;;;;0.20;0.20;;;28.40;69.00;;;;;;4973691;28;20193;-71
2022/08/07 11:22:30;;;;;;;0.63;0.45;;;28.40;69.90;;;;;;4976381;28;20463;-73
2022/08/07 11:25:10;;;;;;;0.47;0.40;;;28.50;67.10;;;;;;4976665;28;20253;-75
2022/08/07 11:27:44;;;;;;;0.85;0.40;;;28.60;71.30;;;;;;4978168;28;20199;-75
2022/08/07 11:30:19;;;;;;;0.73;0.40;;;28.80;63.80;;;;;;4984594;28;20214;-80
2022/08/07 11:32:55;;;;;;;0.50;0.50;;;28.90;66.00;;;;;;4973295;28;20205;-77
2022/08/07 11:35:27;;;;;;;1.45;0.57;;;29.00;65.80;;;;;;4972832;28;20222;-75
2022/08/07 11:38:08;;;;;;;0.55;0.40;;;29.10;65.60;;;;;;4977475;28;20194;-77
2022/08/07 11:40:46;;;;;;;0.60;0.40;;;29.20;63.90;;;;;;4991014;28;20233;-75
2022/08/07 11:43:50;;;;;;;0.80;0.63;;;29.40;63.90;;;;;;4972205;28;20200;-71
2022/08/07 11:46:25;;;;;;;0.40;0.30;;;29.50;63.90;;;;;;4952732;28;20289;-76
2022/08/07 11:49:09;;;;;;;1.20;0.60;;;29.60;63.60;;;;;;4972194;28;20528;-76
2022/08/07 11:51:47;;;;;;;0.70;0.47;;;29.70;64.40;;;;;;4988327;28;20447;-74
2022/08/07 11:55:10;;;;;;;0.77;0.50;;;29.80;60.00;;;;;;4983820;28;20207;-77
2022/08/07 11:57:47;;;;;;;0.60;0.47;;;29.90;61.70;;;;;;4919518;29;20261;-74
2022/08/07 12:00:19;;;;;;;0.30;0.28;;;29.80;59.60;;;;;;4917684;29;20205;-78
2022/08/07 12:03:09;;;;;;;0.50;0.40;;;29.70;60.70;;;;;;4947960;28;20198;-75
2022/08/07 12:06:03;;;;;;;1.10;0.50;;;29.70;59.70;;;;;;4992651;28;20218;-78
2022/08/07 12:08:36;;;;;;;0.93;0.45;;;29.60;58.70;;;;;;4986934;28;20195;-68
2022/08/07 12:11:29;;;;;;;0.60;0.32;;;29.40;57.70;;;;;;4975383;28;20225;-76
2022/08/07 12:14:22;;;;;;;0.90;0.47;;;29.20;51.90;;;;;;5000820;28;20171;-75
2022/08/07 12:17:06;;;;;;;1.10;0.68;;;29.20;56.20;;;;;;4977164;28;20223;-75
2022/08/07 12:19:53;;;;;;;0.90;0.50;;;29.20;57.70;;;;;;4974068;28;20431;-88
2022/08/07 12:22:27;;;;;;;0.70;0.55;;;29.30;55.60;;;;;;4978540;28;20184;-78
2022/08/07 12:28:22;;;;;;;1.35;0.45;;;29.50;56.50;;;;;;4974611;28;20341;-83
2022/08/07 12:30:51;;;;;;;0.70;0.50;;;29.60;56.50;;;;;;4974965;28;20188;-78
2022/08/07 12:33:22;;;;;;;0.95;0.57;;;29.70;57.50;;;;;;4986415;28;20198;-72
2022/08/07 12:35:52;;;;;;;0.70;0.50;;;29.70;57.50;;;;;;4993145;28;20199;-86
2022/08/07 12:38:19;;;;;;;0.82;0.50;;;29.90;56.60;;;;;;4976106;28;20204;-77
2022/08/07 12:40:48;;;;;;;0.75;0.40;;;30.00;56.10;;;;;;4975500;28;20229;-73
2022/08/07 12:43:20;;;;;;;0.93;0.50;;;30.00;55.80;;;;;;4994120;28;20403;-76
2022/08/07 12:45:55;;;;;;;2.35;2.10;;;29.90;54.30;;;;;;4988027;28;20413;-78
2022/08/07 12:48:38;;;;;;;1.98;1.40;;;29.90;54.20;;;;;;4983730;28;20269;-82
2022/08/07 12:51:17;;;;;;;1.40;0.98;;;29.80;53.00;;;;;;4974322;28;20205;-80
2022/08/07 12:53:59;;;;;;;1.40;0.70;;;29.90;53.00;;;;;;4976868;28;20191;-80
2022/08/07 12:56:29;;;;;;;0.52;0.45;;;29.90;53.60;;;;;;4992494;28;20215;-81
2022/08/07 12:59:00;;;;;;;0.85;0.63;;;29.90;54.60;;;;;;4975774;28;20172;-73
2022/08/07 13:01:25;;;;;;;0.40;0.40;;;29.90;54.30;;;;;;5002204;28;20171;-73
2022/08/07 13:03:59;;;;;;;1.13;0.80;;;29.90;54.80;;;;;;4988165;28;20206;-75
2022/08/07 13:07:01;;;;;;;1.38;1.05;;;30.10;53.90;;;;;;4981888;28;20250;-75
2022/08/07 13:09:38;;;;;;;1.30;0.82;;;30.20;53.40;;;;;;4984416;28;20176;-77
2022/08/07 13:12:36;;;;;;;1.02;0.70;;;30.40;51.80;;;;;;4988338;28;20199;-76
2022/08/07 13:15:45;;;;;;;0.85;0.45;;;30.50;49.60;;;;;;4983523;28;20172;-76
2022/08/07 13:18:42;;;;;;;0.88;0.45;;;30.60;50.70;;;;;;4996453;28;20203;-75
2022/08/07 13:21:22;;;;;;;0.60;0.50;;;30.60;51.40;;;;;;4993571;28;20220;-70
2022/08/07 13:24:17;;;;;;;0.50;0.50;;;30.70;51.50;;;;;;4984818;28;20191;-77
2022/08/07 13:26:56;;;;;;;0.52;0.47;;;30.80;51.70;;;;;;4985557;28;20259;-74
2022/08/07 13:29:32;;;;;;;1.63;0.57;;;30.90;52.40;;;;;;4984558;28;20202;-74